Isla Diego Ramirez, Chile
Current Conditions -  °F | °C
As of 2:00 AM on Thursday 23 Oct 2014 (Local Time) from SAWH Reporting Station
Drizzle Drizzle  
Wind Chill: 35°   Ceiling: 4000
Heat Index: 45°   Visibility: 6mi
Dew Point: 34°   Wind: 28mph
Humidity: 66%   Direction: 230°SW
Pressure: 29.32"   Gusts: 36mph
Location:  56.6°S, 68.72°W
Report Text: SAWH 230500Z 23024G31KT 9999 +DZ BKN040BKN100 07/01 Q0993
Loading
Personal Weather Stations






























Interactive Weather Map
Tropical Storm Tracking
New forecast layout! Learn more

10-Day Weather Forecast

Advertisements
Track Severe Weather on mobile